Miraero Ace — 3FIH4 — position and weather

sailwx.info

Track history (hours):
 
Tides and Currents Weather Stations Pressure Air Temp Water Temp Dewpoint Dewpoint Depression Visibility Wind Speed Wind Dir Waves Ship Positions

Miraero Ace

Last reported at 2015-May-09 23:33 UTC. Time now 2015-May-27 17:55 UTC.
Position N 33°11' W 011°34'.
Warning: this ship's position is 17 days out of date.

Length 229 m; draft 7.7 m.

Type: Ship. MMSI: 373216000.

Date/timePositionNaut miles runAvg speedWind from/ knotsBaromVisibWave heightAir tempDewpointWater temp
2015-May-09 23:33N 33°11' W 011°34'33912.4
2015-May-08 20:20N 35°58' W 005°36'7 8.7
2015-May-08 19:33N 35°60' W 005°28'9 8.8
2015-May-08 18:33N 36°07' W 005°23'0 0.2
2015-May-08 17:33N 36°07' W 005°22'0 0.1
2015-May-08 16:33N 36°07' W 005°22'0 0.0
2015-May-08 15:33N 36°07' W 005°22'0 0.1
2015-May-08 14:33N 36°07' W 005°22'0 0.0
2015-May-08 13:33N 36°07' W 005°22'0 0.1
2015-May-08 12:33N 36°07' W 005°22'0 0.0
2015-May-08 11:33N 36°07' W 005°22'0 0.1
2015-May-08 10:33N 36°07' W 005°22'5 5.5
2015-May-08 09:33N 36°06' W 005°16'10112.5
2015-May-08 01:30N 36°14' W 003°11'1314.1
2015-May-08 00:33N 36°15' W 002°55'1413.7
2015-May-07 23:33N 36°16' W 002°38'1513.9
2015-May-07 22:31N 36°18' W 002°20'1414.0
2015-May-07 21:31N 36°20' W 002°03'1313.9
2015-May-07 20:33N 36°22' W 001°47'1514.2
2015-May-07 19:32N 36°25' W 001°29'1414.3
2015-May-07 18:33N 36°27' W 001°12'1414.1
2015-May-07 17:33N 36°29' W 000°55'1414.5
2015-May-07 16:34N 36°32' W 000°37'1413.9
2015-May-07 15:33N 36°34' W 000°20'1413.9
2015-May-07 14:33N 36°37' W 000°03'1413.8
2015-May-07 13:33N 36°39' E 000°14'1413.6
2015-May-07 12:32N 36°42' E 000°31'1313.4
2015-May-07 11:33N 36°44' E 000°48'1413.6
2015-May-07 10:33N 36°47' E 001°04'1413.6
2015-May-07 09:33N 36°49' E 001°21'2713.3
2015-May-07 07:33N 36°54' E 001°54'2713.3
2015-May-07 05:33N 36°58' E 002°27'1413.5
2015-May-07 04:33N 37°01' E 002°43'1713.1
2015-May-07 03:16N 37°03' E 003°04'9113.1
2015-May-06 20:21N 37°19' E 004°56'14313.2
2015-May-06 09:31N 37°38' E 007°55'3013.3
2015-May-06 07:15N 37°38' E 008°33'913.2
2015-May-06 06:33N 37°38' E 008°45'3113.1
2015-May-06 04:10N 37°38' E 009°24'813.3
2015-May-06 03:32N 37°38' E 009°35'1313.2
2015-May-06 02:33N 37°38' E 009°51'1613.2
2015-May-06 01:20N 37°39' E 010°11'1013.3
2015-May-06 00:33N 37°37' E 010°24'1413.6
2015-May-05 23:32N 37°34' E 010°41'1413.8
2015-May-05 22:33N 37°31' E 010°58'1413.4
2015-May-05 21:30N 37°26' E 011°15'1913.6
2015-May-05 20:06N 37°17' E 011°35'813.9
2015-May-05 19:32N 37°13' E 011°44'1313.7
2015-May-05 18:33N 37°07' E 011°59'1413.6
2015-May-05 17:34N 37°02' E 012°15'1413.7
2015-May-05 16:34N 36°58' E 012°31'1413.9
2015-May-05 15:33N 36°52' E 012°47'1414.4
2015-May-05 14:33N 36°46' E 013°04'1414.3
2015-May-05 13:33N 36°42' E 013°21'1413.8
2015-May-05 12:33N 36°36' E 013°36'1413.7
2015-May-05 11:33N 36°31' E 013°52'1413.8
2015-May-05 10:33N 36°26' E 014°08'1414.2
2015-May-05 09:34N 36°21' E 014°24'1414.1
2015-May-05 08:34N 36°16' E 014°41'1414.1
2015-May-05 07:33N 36°11' E 014°57'1413.9
2015-May-05 06:33N 36°05' E 015°13'1413.7
2015-May-05 05:33N 36°00' E 015°29'1413.7
2015-May-05 04:33N 35°55' E 015°45'1413.8
2015-May-05 03:33N 35°50' E 016°01'1414.1
2015-May-05 02:33N 35°45' E 016°17'1414.0
2015-May-05 01:33N 35°40' E 016°33'1413.9
2015-May-05 00:34N 35°34' E 016°48'1413.9
2015-May-04 23:33N 35°29' E 017°04'1413.5
2015-May-04 22:33N 35°24' E 017°20'1413.6
2015-May-04 21:33N 35°19' E 017°35'1413.7
2015-May-04 20:33N 35°14' E 017°51'1413.9
2015-May-04 19:32N 35°09' E 018°07'  
Track history (hours):
 
Tides and Currents Weather Stations Pressure Air Temp Water Temp Dewpoint Dewpoint Depression Visibility Wind Speed Wind Dir Waves Ship Positions

Miraero Ace

Last reported at 2015-May-09 23:33 UTC. Time now 2015-May-27 17:55 UTC.
Position N 33°11' W 011°34'.
Warning: this ship's position is 17 days out of date.

Length 229 m; draft 7.7 m.

Type: Ship. MMSI: 373216000.

Date/timePositionNaut miles runAvg speedWind from/ knotsBaromVisibWave heightAir tempDewpointWater temp
2015-May-09 23:33N 33°11' W 011°34'33912.4
2015-May-08 20:20N 35°58' W 005°36'7 8.7
2015-May-08 19:33N 35°60' W 005°28'9 8.8
2015-May-08 18:33N 36°07' W 005°23'0 0.2
2015-May-08 17:33N 36°07' W 005°22'0 0.1
2015-May-08 16:33N 36°07' W 005°22'0 0.0
2015-May-08 15:33N 36°07' W 005°22'0 0.1
2015-May-08 14:33N 36°07' W 005°22'0 0.0
2015-May-08 13:33N 36°07' W 005°22'0 0.1
2015-May-08 12:33N 36°07' W 005°22'0 0.0
2015-May-08 11:33N 36°07' W 005°22'0 0.1
2015-May-08 10:33N 36°07' W 005°22'5 5.5
2015-May-08 09:33N 36°06' W 005°16'10112.5
2015-May-08 01:30N 36°14' W 003°11'1314.1
2015-May-08 00:33N 36°15' W 002°55'1413.7
2015-May-07 23:33N 36°16' W 002°38'1513.9
2015-May-07 22:31N 36°18' W 002°20'1414.0
2015-May-07 21:31N 36°20' W 002°03'1313.9
2015-May-07 20:33N 36°22' W 001°47'1514.2
2015-May-07 19:32N 36°25' W 001°29'1414.3
2015-May-07 18:33N 36°27' W 001°12'1414.1
2015-May-07 17:33N 36°29' W 000°55'1414.5
2015-May-07 16:34N 36°32' W 000°37'1413.9
2015-May-07 15:33N 36°34' W 000°20'1413.9
2015-May-07 14:33N 36°37' W 000°03'1413.8
2015-May-07 13:33N 36°39' E 000°14'1413.6
2015-May-07 12:32N 36°42' E 000°31'1313.4
2015-May-07 11:33N 36°44' E 000°48'1413.6
2015-May-07 10:33N 36°47' E 001°04'1413.6
2015-May-07 09:33N 36°49' E 001°21'2713.3
2015-May-07 07:33N 36°54' E 001°54'2713.3
2015-May-07 05:33N 36°58' E 002°27'1413.5
2015-May-07 04:33N 37°01' E 002°43'1713.1
2015-May-07 03:16N 37°03' E 003°04'9113.1
2015-May-06 20:21N 37°19' E 004°56'14313.2
2015-May-06 09:31N 37°38' E 007°55'3013.3
2015-May-06 07:15N 37°38' E 008°33'913.2
2015-May-06 06:33N 37°38' E 008°45'3113.1
2015-May-06 04:10N 37°38' E 009°24'813.3
2015-May-06 03:32N 37°38' E 009°35'1313.2
2015-May-06 02:33N 37°38' E 009°51'1613.2
2015-May-06 01:20N 37°39' E 010°11'1013.3
2015-May-06 00:33N 37°37' E 010°24'1413.6
2015-May-05 23:32N 37°34' E 010°41'1413.8
2015-May-05 22:33N 37°31' E 010°58'1413.4
2015-May-05 21:30N 37°26' E 011°15'1913.6
2015-May-05 20:06N 37°17' E 011°35'813.9
2015-May-05 19:32N 37°13' E 011°44'1313.7
2015-May-05 18:33N 37°07' E 011°59'1413.6
2015-May-05 17:34N 37°02' E 012°15'1413.7
2015-May-05 16:34N 36°58' E 012°31'1413.9
2015-May-05 15:33N 36°52' E 012°47'1414.4
2015-May-05 14:33N 36°46' E 013°04'1414.3
2015-May-05 13:33N 36°42' E 013°21'1413.8
2015-May-05 12:33N 36°36' E 013°36'1413.7
2015-May-05 11:33N 36°31' E 013°52'1413.8
2015-May-05 10:33N 36°26' E 014°08'1414.2
2015-May-05 09:34N 36°21' E 014°24'1414.1
2015-May-05 08:34N 36°16' E 014°41'1414.1
2015-May-05 07:33N 36°11' E 014°57'1413.9
2015-May-05 06:33N 36°05' E 015°13'1413.7
2015-May-05 05:33N 36°00' E 015°29'1413.7
2015-May-05 04:33N 35°55' E 015°45'1413.8
2015-May-05 03:33N 35°50' E 016°01'1414.1
2015-May-05 02:33N 35°45' E 016°17'1414.0
2015-May-05 01:33N 35°40' E 016°33'1413.9
2015-May-05 00:34N 35°34' E 016°48'1413.9
2015-May-04 23:33N 35°29' E 017°04'1413.5
2015-May-04 22:33N 35°24' E 017°20'1413.6
2015-May-04 21:33N 35°19' E 017°35'1413.7
2015-May-04 20:33N 35°14' E 017°51'1413.9
2015-May-04 19:32N 35°09' E 018°07'  

Dump ship's entire track history